Time;durP1;ratioP1;P1;durP2;ratioP2;P2;SDS_P1;SDS_P2;PMS_P1;PMS_P2;Temp;Humidity;BMP_temperature;BMP_pressure;BME280_temperature;BME280_humidity;BME280_pressure;Samples;Min_cycle;Max_cycle;Signal;HPM_P1;HPM_P2
2021/10/03 00:00:22;;;;;;;;;;;12.60;1.00;;;;;;5047572;28;19913;-69
2021/10/03 00:02:48;;;;;;;;;;;12.50;1.00;;;;;;5047909;28;19913;-68
2021/10/03 00:05:15;;;;;;;;;;;12.50;1.00;;;;;;5048685;28;19931;-69
2021/10/03 00:07:42;;;;;;;;;;;12.50;1.00;;;;;;5048426;28;19912;-68
2021/10/03 00:10:09;;;;;;;;;;;12.50;1.00;;;;;;5048229;28;19959;-65
2021/10/03 00:12:34;;;;;;;;;;;12.50;1.00;;;;;;5047256;28;20523;-67
2021/10/03 00:15:00;;;;;;;;;;;12.50;1.00;;;;;;5047999;28;19948;-69
2021/10/03 00:17:25;;;;;;;;;;;12.50;1.00;;;;;;5048366;28;19921;-68
2021/10/03 00:19:51;;;;;;;;;;;12.50;1.00;;;;;;5048805;28;20357;-68
2021/10/03 00:22:16;;;;;;;;;;;12.50;1.00;;;;;;5047267;28;19912;-69
2021/10/03 00:24:42;;;;;;;;;;;12.50;1.00;;;;;;5047859;28;19925;-68
2021/10/03 00:27:07;;;;;;;;;;;12.50;1.00;;;;;;5048321;28;20329;-68
2021/10/03 00:29:34;;;;;;;;;;;12.40;1.00;;;;;;5047863;28;19917;-67
2021/10/03 00:32:02;;;;;;;;;;;12.50;1.00;;;;;;5045371;28;20012;-68
2021/10/03 00:34:28;;;;;;;;;;;12.50;1.00;;;;;;5039845;28;20319;-68
2021/10/03 00:36:53;;;;;;;;;;;12.40;1.00;;;;;;5047978;28;20250;-67
2021/10/03 00:39:19;;;;;;;;;;;12.40;1.00;;;;;;5047946;28;19917;-69
2021/10/03 00:41:44;;;;;;;;;;;12.40;1.00;;;;;;5047442;28;19924;-69
2021/10/03 00:44:10;;;;;;;;;;;12.40;1.00;;;;;;5047562;28;19924;-69
2021/10/03 00:46:36;;;;;;;;;;;12.50;1.00;;;;;;5047154;28;20007;-67
2021/10/03 00:49:01;;;;;;;;;;;12.50;1.00;;;;;;5048609;28;19959;-69
2021/10/03 00:51:27;;;;;;;;;;;12.60;1.00;;;;;;5046915;28;20004;-65
2021/10/03 00:53:52;;;;;;;;;;;12.60;1.00;;;;;;5044325;28;19960;-66
2021/10/03 00:56:18;;;;;;;;;;;12.60;1.00;;;;;;5047957;28;19916;-65
2021/10/03 00:58:44;;;;;;;;;;;12.60;1.00;;;;;;5047571;28;19928;-66
2021/10/03 01:01:10;;;;;;;;;;;12.60;1.00;;;;;;5047239;28;20506;-66
2021/10/03 01:03:36;;;;;;;;;;;12.60;1.00;;;;;;5047633;28;19978;-65
2021/10/03 01:06:03;;;;;;;;;;;12.60;1.00;;;;;;5047308;28;20297;-64
2021/10/03 01:08:28;;;;;;;;;;;12.60;1.00;;;;;;5047614;28;20007;-65
2021/10/03 01:10:54;;;;;;;;;;;12.50;1.00;;;;;;5047996;28;20259;-66
2021/10/03 01:13:19;;;;;;;;;;;12.50;1.00;;;;;;5046390;28;19921;-66
2021/10/03 01:15:46;;;;;;;;;;;12.50;1.00;;;;;;5048377;28;19913;-69
2021/10/03 01:18:12;;;;;;;;;;;12.50;1.00;;;;;;5052222;28;19925;-68
2021/10/03 01:20:38;;;;;;;;;;;12.50;1.00;;;;;;5051253;28;19919;-67
2021/10/03 01:23:03;;;;;;;;;;;12.60;1.00;;;;;;5050912;28;19917;-67
2021/10/03 01:25:30;;;;;;;;;;;12.60;1.00;;;;;;5051038;28;20373;-68
2021/10/03 01:27:56;;;;;;;;;;;12.60;1.00;;;;;;5051642;28;19912;-69
2021/10/03 01:30:21;;;;;;;;;;;12.50;1.00;;;;;;5051005;28;19920;-68
2021/10/03 01:32:47;;;;;;;;;;;12.50;1.00;;;;;;5051062;28;20315;-67
2021/10/03 01:35:13;;;;;;;;;;;12.40;1.00;;;;;;5051636;28;19927;-68
2021/10/03 01:37:38;;;;;;;;;;;12.40;1.00;;;;;;5050843;28;19943;-67
2021/10/03 01:40:05;;;;;;;;;;;12.40;1.00;;;;;;5051193;28;19913;-66
2021/10/03 01:42:31;;;;;;;;;;;12.40;1.00;;;;;;5050547;28;19924;-69
2021/10/03 01:44:56;;;;;;;;;;;12.30;1.00;;;;;;5050127;28;19924;-66
2021/10/03 01:47:22;;;;;;;;;;;12.30;1.00;;;;;;5051316;28;19999;-66
2021/10/03 01:49:48;;;;;;;;;;;12.40;1.00;;;;;;5051517;28;19919;-64
2021/10/03 01:52:13;;;;;;;;;;;12.40;1.00;;;;;;5049808;28;19921;-64
2021/10/03 01:54:39;;;;;;;;;;;12.40;1.00;;;;;;5051331;28;19921;-67
2021/10/03 01:57:05;;;;;;;;;;;12.40;1.00;;;;;;5051248;28;19974;-65
2021/10/03 01:59:31;;;;;;;;;;;12.50;1.00;;;;;;5051072;28;19925;-66
2021/10/03 02:01:57;;;;;;;;;;;12.50;1.00;;;;;;5049801;28;19920;-67
2021/10/03 02:04:27;;;;;;;;;;;12.50;1.00;;;;;;5050974;28;19927;-67
2021/10/03 02:06:53;;;;;;;;;;;12.40;1.00;;;;;;5050080;28;19913;-67
2021/10/03 02:09:20;;;;;;;;;;;12.40;1.00;;;;;;5051251;28;20011;-67
2021/10/03 02:11:47;;;;;;;;;;;12.30;1.00;;;;;;5050497;28;19912;-67
2021/10/03 02:14:13;;;;;;;;;;;12.30;1.00;;;;;;5050650;28;20241;-66
2021/10/03 02:16:38;;;;;;;;;;;12.30;1.00;;;;;;5049815;28;19917;-66
2021/10/03 02:19:04;;;;;;;;;;;12.20;1.00;;;;;;5051201;28;19912;-67
2021/10/03 02:21:30;;;;;;;;;;;12.20;1.00;;;;;;5050548;28;19916;-66
2021/10/03 02:23:55;;;;;;;;;;;12.10;1.00;;;;;;5049917;28;19936;-67
2021/10/03 02:26:21;;;;;;;;;;;12.10;1.00;;;;;;5050175;28;19954;-67
2021/10/03 02:28:46;;;;;;;;;;;12.00;1.00;;;;;;5050685;28;20369;-65
2021/10/03 02:31:12;;;;;;;;;;;12.00;1.00;;;;;;5049717;28;19912;-67
2021/10/03 02:33:38;;;;;;;;;;;12.00;1.00;;;;;;5049872;28;19916;-66
2021/10/03 02:36:05;;;;;;;;;;;12.00;1.00;;;;;;5049739;28;20265;-68
2021/10/03 02:38:31;;;;;;;;;;;12.00;1.00;;;;;;5050509;28;19967;-67
2021/10/03 02:40:58;;;;;;;;;;;12.00;1.00;;;;;;5050326;28;20381;-66
2021/10/03 02:43:24;;;;;;;;;;;12.10;1.00;;;;;;5049326;28;20019;-67
2021/10/03 02:45:51;;;;;;;;;;;12.10;1.00;;;;;;5049371;28;20023;-67
2021/10/03 02:48:18;;;;;;;;;;;12.10;1.00;;;;;;5049935;28;19917;-67
2021/10/03 02:50:45;;;;;;;;;;;12.10;1.00;;;;;;5049757;28;19916;-67
2021/10/03 02:53:10;;;;;;;;;;;12.10;1.00;;;;;;5048580;28;20362;-67
2021/10/03 02:55:36;;;;;;;;;;;12.20;1.00;;;;;;5049909;28;19927;-67
2021/10/03 02:58:03;;;;;;;;;;;12.20;1.00;;;;;;5050040;28;19923;-67
2021/10/03 03:00:28;;;;;;;;;;;12.20;1.00;;;;;;5049107;28;19916;-65
2021/10/03 03:02:54;;;;;;;;;;;12.30;1.00;;;;;;5049406;28;19913;-66
2021/10/03 03:05:19;;;;;;;;;;;12.30;1.00;;;;;;5048627;28;20289;-65
2021/10/03 03:07:45;;;;;;;;;;;12.30;1.00;;;;;;5049910;28;19925;-67
2021/10/03 03:10:10;;;;;;;;;;;12.30;1.00;;;;;;5049951;28;19919;-66
2021/10/03 03:12:37;;;;;;;;;;;12.20;1.00;;;;;;5048516;28;19983;-66
2021/10/03 03:15:04;;;;;;;;;;;12.30;1.00;;;;;;5049582;28;20399;-67
2021/10/03 03:17:29;;;;;;;;;;;12.20;1.00;;;;;;5049135;28;20370;-67
2021/10/03 03:19:55;;;;;;;;;;;12.10;1.00;;;;;;5049618;28;20070;-66
2021/10/03 03:22:20;;;;;;;;;;;12.00;1.00;;;;;;5048611;28;19951;-65
2021/10/03 03:24:46;;;;;;;;;;;11.90;1.00;;;;;;5049700;28;19916;-67
2021/10/03 03:27:11;;;;;;;;;;;11.90;1.00;;;;;;5049928;28;19936;-67
2021/10/03 03:29:38;;;;;;;;;;;11.80;1.00;;;;;;5049371;28;20542;-66
2021/10/03 03:32:04;;;;;;;;;;;11.80;1.00;;;;;;5048373;28;19925;-66
2021/10/03 03:34:30;;;;;;;;;;;11.80;1.00;;;;;;5049842;28;20391;-67
2021/10/03 03:36:56;;;;;;;;;;;11.80;1.00;;;;;;5048636;28;19982;-67
2021/10/03 03:39:21;;;;;;;;;;;11.80;1.00;;;;;;5049065;28;19935;-67
2021/10/03 03:41:47;;;;;;;;;;;11.80;1.00;;;;;;5048727;28;19931;-66
2021/10/03 03:44:12;;;;;;;;;;;11.80;1.00;;;;;;5048544;28;20004;-67
2021/10/03 03:46:38;;;;;;;;;;;11.80;1.00;;;;;;5048021;28;20272;-67
2021/10/03 03:49:03;;;;;;;;;;;11.80;1.00;;;;;;5049213;28;20013;-67
2021/10/03 03:51:29;;;;;;;;;;;11.80;1.00;;;;;;5048510;28;19920;-65
2021/10/03 03:53:54;;;;;;;;;;;11.80;1.00;;;;;;5046728;28;19917;-67
2021/10/03 03:56:20;;;;;;;;;;;11.70;1.00;;;;;;5048610;28;20381;-67
2021/10/03 03:58:45;;;;;;;;;;;11.70;1.00;;;;;;5049202;28;19913;-68
2021/10/03 04:01:11;;;;;;;;;;;11.70;1.00;;;;;;5047966;28;19970;-67
2021/10/03 04:03:37;;;;;;;;;;;11.70;1.00;;;;;;5047923;28;19920;-67
2021/10/03 04:06:02;;;;;;;;;;;11.80;1.00;;;;;;5048240;28;19913;-67
2021/10/03 04:08:28;;;;;;;;;;;11.90;1.00;;;;;;5048834;28;19925;-67
2021/10/03 04:10:54;;;;;;;;;;;11.90;1.00;;;;;;5048512;28;19913;-65
2021/10/03 04:13:19;;;;;;;;;;;11.90;1.00;;;;;;5047861;28;20007;-67
2021/10/03 04:15:45;;;;;;;;;;;12.00;1.00;;;;;;5047545;28;19912;-67
2021/10/03 04:18:11;;;;;;;;;;;11.90;1.00;;;;;;5048470;28;19923;-67
2021/10/03 04:20:36;;;;;;;;;;;12.00;1.00;;;;;;5048526;28;20238;-67
2021/10/03 04:23:02;;;;;;;;;;;12.00;1.00;;;;;;5047865;28;19920;-66
2021/10/03 04:25:28;;;;;;;;;;;12.00;1.00;;;;;;5047891;28;19923;-65
2021/10/03 04:27:53;;;;;;;;;;;12.00;1.00;;;;;;5048159;28;20369;-66
2021/10/03 04:30:19;;;;;;;;;;;12.00;1.00;;;;;;5047765;28;20029;-66
2021/10/03 04:32:44;;;;;;;;;;;12.00;1.00;;;;;;5047615;28;20193;-67
2021/10/03 04:35:10;;;;;;;;;;;12.00;1.00;;;;;;5048301;28;19920;-65
2021/10/03 04:37:35;;;;;;;;;;;11.90;1.00;;;;;;5047935;28;20464;-65
2021/10/03 04:40:01;;;;;;;;;;;11.90;1.00;;;;;;5047890;28;19959;-67
2021/10/03 04:42:27;;;;;;;;;;;12.00;1.00;;;;;;5047083;28;19935;-67
2021/10/03 04:44:52;;;;;;;;;;;11.90;1.00;;;;;;5047870;28;19924;-65
2021/10/03 04:47:18;;;;;;;;;;;11.90;1.00;;;;;;5048272;28;20012;-68
2021/10/03 04:49:43;;;;;;;;;;;11.80;1.00;;;;;;5048250;28;19927;-67
2021/10/03 04:52:09;;;;;;;;;;;11.90;1.00;;;;;;5046590;28;19912;-66
2021/10/03 04:54:34;;;;;;;;;;;11.80;1.00;;;;;;5048123;28;20058;-66
2021/10/03 04:57:00;;;;;;;;;;;11.80;1.00;;;;;;5048020;28;20043;-67
2021/10/03 04:59:25;;;;;;;;;;;11.80;1.00;;;;;;5048111;28;19999;-66
2021/10/03 05:01:51;;;;;;;;;;;11.80;1.00;;;;;;5046446;28;20020;-66
2021/10/03 05:04:17;;;;;;;;;;;11.90;1.00;;;;;;5047701;28;20892;-66
2021/10/03 05:06:42;;;;;;;;;;;11.90;1.00;;;;;;5047500;28;19930;-67
2021/10/03 05:09:08;;;;;;;;;;;11.90;1.00;;;;;;5043900;28;19917;-67
2021/10/03 05:11:33;;;;;;;;;;;11.90;1.00;;;;;;5048375;28;19966;-65
2021/10/03 05:14:05;;;;;;;;;;;11.90;1.00;;;;;;5047184;28;19917;-67
2021/10/03 05:16:30;;;;;;;;;;;12.00;1.00;;;;;;5047165;28;19962;-68
2021/10/03 05:18:58;;;;;;;;;;;12.00;1.00;;;;;;5048403;28;19913;-68
2021/10/03 05:21:23;;;;;;;;;;;12.10;1.00;;;;;;5047641;28;19931;-68
2021/10/03 05:23:49;;;;;;;;;;;12.00;1.00;;;;;;5047108;28;20500;-67
2021/10/03 05:26:15;;;;;;;;;;;12.10;1.00;;;;;;5048206;28;19924;-67
2021/10/03 05:28:40;;;;;;;;;;;12.20;1.00;;;;;;5047716;28;20297;-67
2021/10/03 05:31:05;;;;;;;;;;;12.20;1.00;;;;;;5047075;28;19923;-66
2021/10/03 05:33:32;;;;;;;;;;;12.40;1.00;;;;;;5047396;28;19908;-68
2021/10/03 05:35:58;;;;;;;;;;;12.50;1.00;;;;;;5046830;28;20404;-66
2021/10/03 05:38:24;;;;;;;;;;;12.70;1.00;;;;;;5047766;28;19956;-66
2021/10/03 05:40:49;;;;;;;;;;;12.80;1.00;;;;;;5047957;28;20632;-67
2021/10/03 05:43:15;;;;;;;;;;;12.90;1.00;;;;;;5047040;28;19978;-68
2021/10/03 05:45:40;;;;;;;;;;;13.00;1.00;;;;;;5046518;28;19917;-67
2021/10/03 05:48:06;;;;;;;;;;;13.20;1.00;;;;;;5048149;28;19974;-68
2021/10/03 05:50:31;;;;;;;;;;;13.40;1.00;;;;;;5046286;28;19912;-67
2021/10/03 05:52:57;;;;;;;;;;;13.60;1.00;;;;;;5046760;28;19916;-67
2021/10/03 05:55:23;;;;;;;;;;;13.80;1.00;;;;;;5041025;28;19928;-68
2021/10/03 05:57:48;;;;;;;;;;;14.10;1.00;;;;;;5047741;28;19963;-66
2021/10/03 06:00:14;;;;;;;;;;;14.30;1.00;;;;;;5047064;28;20585;-68
2021/10/03 06:02:39;;;;;;;;;;;14.40;99.90;;;;;;5048684;28;19920;-68
2021/10/03 06:05:05;;;;;;;;;;;14.40;99.90;;;;;;5051008;28;19928;-67
2021/10/03 06:07:30;;;;;;;;;;;14.40;97.80;;;;;;5050608;28;19917;-67
2021/10/03 06:09:56;;;;;;;;;;;14.50;1.00;;;;;;5051368;28;19998;-66
2021/10/03 06:12:21;;;;;;;;;;;14.50;1.00;;;;;;5050104;28;19908;-68
2021/10/03 06:14:47;;;;;;;;;;;14.50;1.00;;;;;;5050614;28;19916;-67
2021/10/03 06:17:12;;;;;;;;;;;14.60;1.00;;;;;;5050737;28;19923;-68
2021/10/03 06:19:38;;;;;;;;;;;14.70;1.00;;;;;;5050987;28;19913;-68
2021/10/03 06:22:04;;;;;;;;;;;14.80;1.00;;;;;;5049891;28;19917;-68
2021/10/03 06:24:29;;;;;;;;;;;14.90;99.90;;;;;;5050337;28;20385;-67
2021/10/03 06:26:55;;;;;;;;;;;15.00;96.70;;;;;;5050740;28;19917;-66
2021/10/03 06:29:20;;;;;;;;;;;15.20;1.00;;;;;;5050833;28;19912;-68
2021/10/03 06:31:46;;;;;;;;;;;15.30;1.00;;;;;;5048801;28;19913;-67
2021/10/03 06:34:11;;;;;;;;;;;15.50;99.90;;;;;;5050637;28;19931;-68
2021/10/03 06:36:37;;;;;;;;;;;15.60;1.00;;;;;;5049800;28;20008;-68
2021/10/03 06:39:03;;;;;;;;;;;15.80;99.90;;;;;;5050606;28;19923;-68
2021/10/03 06:41:29;;;;;;;;;;;15.70;99.90;;;;;;5050028;28;19958;-68
2021/10/03 06:43:55;;;;;;;;;;;15.70;99.90;;;;;;5049246;28;19924;-66
2021/10/03 06:46:21;;;;;;;;;;;15.90;99.90;;;;;;5049458;28;20389;-68
2021/10/03 06:48:46;;;;;;;;;;;16.60;1.00;;;;;;5050178;28;19955;-67
2021/10/03 06:51:14;;;;;;;;;;;17.10;1.00;;;;;;5049735;28;19920;-68
2021/10/03 06:53:39;;;;;;;;;;;17.70;99.90;;;;;;5046549;28;19927;-67
2021/10/03 06:56:05;;;;;;;;;;;17.80;99.90;;;;;;5050383;28;19917;-67
2021/10/03 06:58:30;;;;;;;;;;;17.90;22.70;;;;;;5049999;28;20040;-66
2021/10/03 07:00:56;;;;;;;;;;;17.60;1.00;;;;;;5049067;28;20324;-68
2021/10/03 07:03:21;;;;;;;;;;;17.60;1.00;;;;;;5049165;28;19916;-67
2021/10/03 07:05:47;;;;;;;;;;;18.30;1.00;;;;;;5049056;28;20357;-67
2021/10/03 07:08:12;;;;;;;;;;;20.00;1.00;;;;;;5050054;28;19956;-67
2021/10/03 07:10:39;;;;;;;;;;;21.50;99.90;;;;;;5050079;28;19917;-67
2021/10/03 07:13:05;;;;;;;;;;;22.50;99.90;;;;;;5047369;28;19932;-69
2021/10/03 07:15:31;;;;;;;;;;;24.50;99.90;;;;;;5048920;28;20050;-67
2021/10/03 07:17:57;;;;;;;;;;;27.20;99.90;;;;;;5050007;28;19955;-67
2021/10/03 07:20:22;;;;;;;;;;;28.50;99.90;;;;;;5045261;28;19917;-68
2021/10/03 07:22:48;;;;;;;;;;;30.40;99.90;;;;;;5046894;28;19923;-67
2021/10/03 07:25:13;;;;;;;;;;;29.70;99.90;;;;;;5045660;28;19917;-68
2021/10/03 07:27:39;;;;;;;;;;;29.90;99.90;;;;;;5048874;28;19916;-67
2021/10/03 07:30:05;;;;;;;;;;;31.80;99.90;;;;;;5048411;28;20607;-68
2021/10/03 07:32:31;;;;;;;;;;;34.20;99.90;;;;;;5048429;28;20354;-68
2021/10/03 07:34:56;;;;;;;;;;;36.20;99.90;;;;;;5049232;28;20234;-68
2021/10/03 07:37:22;;;;;;;;;;;35.30;99.90;;;;;;5048509;28;19917;-67
2021/10/03 07:39:47;;;;;;;;;;;34.10;99.90;;;;;;5049424;28;19924;-68
2021/10/03 07:42:13;;;;;;;;;;;35.90;99.90;;;;;;5047817;28;19917;-68
2021/10/03 07:44:38;;;;;;;;;;;35.80;99.90;;;;;;5048641;28;20004;-68
2021/10/03 07:47:04;;;;;;;;;;;38.80;99.90;;;;;;5047802;28;19913;-68
2021/10/03 07:49:30;;;;;;;;;;;37.50;99.90;;;;;;5049740;28;19912;-66
2021/10/03 07:51:55;;;;;;;;;;;34.30;99.90;;;;;;5047456;28;20488;-68
2021/10/03 07:54:21;;;;;;;;;;;33.90;99.90;;;;;;5048821;28;20319;-68
2021/10/03 07:56:46;;;;;;;;;;;33.30;99.90;;;;;;5048860;28;19909;-69
2021/10/03 07:59:12;;;;;;;;;;;31.20;99.90;;;;;;5049359;28;19916;-69
2021/10/03 08:01:37;;;;;;;;;;;30.40;99.90;;;;;;5047918;28;20106;-69
2021/10/03 08:04:03;;;;;;;;;;;30.80;99.90;;;;;;5047628;28;19921;-68
2021/10/03 08:06:29;;;;;;;;;;;30.80;99.90;;;;;;5049187;28;19931;-68
2021/10/03 08:08:55;;;;;;;;;;;31.40;99.90;;;;;;5049413;28;19933;-67
2021/10/03 08:11:20;;;;;;;;;;;30.10;99.90;;;;;;5047986;28;19924;-68
2021/10/03 08:13:46;;;;;;;;;;;28.30;99.90;;;;;;5047638;28;20584;-67
2021/10/03 08:16:11;;;;;;;;;;;27.00;99.90;;;;;;5046680;28;19967;-67
2021/10/03 08:18:37;;;;;;;;;;;25.60;99.90;;;;;;5047301;28;19997;-67
2021/10/03 08:21:03;;;;;;;;;;;24.80;99.90;;;;;;5044127;28;19928;-68
2021/10/03 08:23:29;;;;;;;;;;;24.30;99.90;;;;;;5029132;28;20349;-68
2021/10/03 08:25:55;;;;;;;;;;;23.40;99.90;;;;;;5046750;28;20003;-68
2021/10/03 08:28:20;;;;;;;;;;;23.00;99.90;;;;;;5047313;28;20003;-68
2021/10/03 08:30:46;;;;;;;;;;;22.70;99.90;;;;;;5045711;28;19992;-67
2021/10/03 08:33:12;;;;;;;;;;;22.40;99.90;;;;;;5044779;28;19920;-67
2021/10/03 08:35:37;;;;;;;;;;;22.30;99.90;;;;;;5051430;28;19983;-66
2021/10/03 08:38:03;;;;;;;;;;;22.20;99.90;;;;;;5053370;28;20008;-67
2021/10/03 08:40:28;;;;;;;;;;;22.30;99.90;;;;;;5054622;28;19909;-68
2021/10/03 08:42:54;;;;;;;;;;;22.40;99.90;;;;;;5056663;28;19954;-68
2021/10/03 08:45:20;;;;;;;;;;;22.10;99.90;;;;;;5057080;28;20452;-67
2021/10/03 08:47:45;;;;;;;;;;;22.10;99.90;;;;;;5056888;28;20008;-68
2021/10/03 08:50:13;;;;;;;;;;;22.10;99.90;;;;;;5056474;28;20479;-68
2021/10/03 08:52:39;;;;;;;;;;;22.30;99.90;;;;;;5055190;28;19916;-67
2021/10/03 08:55:06;;;;;;;;;;;22.30;99.90;;;;;;5053930;28;20700;-68
2021/10/03 08:57:32;;;;;;;;;;;22.20;99.90;;;;;;5057333;28;19975;-66
2021/10/03 09:00:24;;;;;;;;;;;21.80;99.90;;;;;;5055474;28;20035;-68
2021/10/03 09:03:06;;;;;;;;;;;21.50;99.90;;;;;;5052277;28;20774;-66
2021/10/03 09:05:52;;;;;;;;;;;21.40;99.90;;;;;;5056938;28;19927;-66
2021/10/03 09:08:25;;;;;;;;;;;21.50;99.90;;;;;;5052709;28;19912;-68
2021/10/03 09:10:51;;;;;;;;;;;21.50;99.90;;;;;;5055515;28;19908;-67
2021/10/03 09:13:18;;;;;;;;;;;21.30;99.90;;;;;;5052237;28;20376;-66
2021/10/03 09:15:44;;;;;;;;;;;21.10;99.90;;;;;;5053590;28;19971;-67
2021/10/03 09:18:09;;;;;;;;;;;21.10;99.90;;;;;;5057471;28;19920;-67
2021/10/03 09:20:35;;;;;;;;;;;21.50;99.90;;;;;;5056123;28;19920;-66
2021/10/03 09:23:12;;;;;;;;;;;22.30;99.90;;;;;;5057010;28;19909;-67
2021/10/03 09:25:39;;;;;;;;;;;23.70;99.90;;;;;;5051882;28;19935;-68
2021/10/03 09:28:30;;;;;;;;;;;24.90;99.90;;;;;;5053892;28;20759;-68
2021/10/03 09:30:56;;;;;;;;;;;26.60;99.90;;;;;;5047974;28;19920;-67
2021/10/03 09:33:22;;;;;;;;;;;27.00;99.90;;;;;;5055560;28;20257;-68
2021/10/03 09:35:56;;;;;;;;;;;28.30;99.90;;;;;;5043377;28;20423;-68
2021/10/03 09:38:22;;;;;;;;;;;29.70;99.90;;;;;;5058073;28;20292;-66
2021/10/03 09:41:04;;;;;;;;;;;29.70;99.90;;;;;;5061210;28;19912;-67
2021/10/03 09:43:49;;;;;;;;;;;29.00;99.90;;;;;;5055048;28;20856;-67
2021/10/03 09:46:34;;;;;;;;;;;28.20;99.90;;;;;;5057021;28;19999;-67
2021/10/03 09:49:00;;;;;;;;;;;28.10;99.90;;;;;;5058234;28;19909;-66
2021/10/03 09:51:26;;;;;;;;;;;27.50;99.90;;;;;;5059352;28;19913;-65
2021/10/03 09:53:52;;;;;;;;;;;26.80;99.90;;;;;;5059845;28;20339;-66
2021/10/03 09:56:17;;;;;;;;;;;26.30;99.90;;;;;;5059140;28;19908;-68
2021/10/03 09:58:46;;;;;;;;;;;26.10;99.90;;;;;;5057054;28;19917;-68
2021/10/03 10:01:12;;;;;;;;;;;26.10;99.90;;;;;;5056131;28;19917;-68
2021/10/03 10:03:37;;;;;;;;;;;25.90;99.90;;;;;;5047431;28;20004;-64
2021/10/03 10:06:05;;;;;;;;;;;27.10;99.90;;;;;;5047899;28;19912;-66
2021/10/03 10:08:31;;;;;;;;;;;27.70;99.90;;;;;;5048956;28;19932;-65
2021/10/03 10:11:02;;;;;;;;;;;27.50;99.90;;;;;;5045148;28;19913;-67
2021/10/03 10:13:28;;;;;;;;;;;27.00;99.90;;;;;;5057723;28;20253;-68
2021/10/03 10:15:53;;;;;;;;;;;26.80;99.90;;;;;;5053384;28;19913;-66
2021/10/03 10:18:21;;;;;;;;;;;26.50;99.90;;;;;;5058469;28;19948;-66
2021/10/03 10:20:47;;;;;;;;;;;26.60;99.90;;;;;;5057512;28;19908;-64
2021/10/03 10:23:15;;;;;;;;;;;26.30;99.90;;;;;;5057858;28;20361;-65
2021/10/03 10:25:42;;;;;;;;;;;26.10;99.90;;;;;;5055582;28;20488;-66
2021/10/03 10:28:09;;;;;;;;;;;25.70;99.90;;;;;;5057356;28;20396;-66
2021/10/03 10:30:36;;;;;;;;;;;25.40;99.90;;;;;;5057644;28;20566;-66
2021/10/03 10:33:05;;;;;;;;;;;25.10;99.90;;;;;;5055965;28;20004;-66
2021/10/03 10:35:32;;;;;;;;;;;24.90;99.90;;;;;;5056309;28;19908;-66
2021/10/03 10:37:59;;;;;;;;;;;24.60;99.90;;;;;;5052576;28;20273;-65
2021/10/03 10:40:29;;;;;;;;;;;24.50;99.90;;;;;;5057400;28;20366;-66
2021/10/03 10:43:03;;;;;;;;;;;24.50;99.90;;;;;;5054829;28;19913;-65
2021/10/03 10:45:35;;;;;;;;;;;24.60;99.90;;;;;;5055523;28;20045;-65
2021/10/03 10:48:10;;;;;;;;;;;24.40;99.90;;;;;;5054380;28;20612;-67
2021/10/03 10:50:48;;;;;;;;;;;24.50;99.90;;;;;;5067315;28;20388;-68
2021/10/03 10:53:16;;;;;;;;;;;24.70;99.90;;;;;;5065993;28;20324;-66
2021/10/03 10:55:42;;;;;;;;;;;24.70;99.90;;;;;;5046663;28;19916;-67
2021/10/03 10:58:09;;;;;;;;;;;24.70;99.90;;;;;;5046575;28;20278;-67
2021/10/03 11:00:46;;;;;;;;;;;24.60;99.90;;;;;;5046407;28;19908;-63
2021/10/03 11:03:11;;;;;;;;;;;24.40;99.90;;;;;;5046715;28;20029;-66
2021/10/03 11:05:39;;;;;;;;;;;24.10;99.90;;;;;;5046374;28;20389;-67
2021/10/03 11:08:05;;;;;;;;;;;24.00;99.90;;;;;;5046321;28;20365;-67
2021/10/03 11:10:30;;;;;;;;;;;23.80;99.90;;;;;;5046372;28;19913;-67
2021/10/03 11:12:56;;;;;;;;;;;23.70;99.90;;;;;;5045598;28;20378;-65
2021/10/03 11:15:22;;;;;;;;;;;23.70;99.90;;;;;;5045520;28;20003;-66
2021/10/03 11:17:47;;;;;;;;;;;23.80;99.90;;;;;;5046727;28;20164;-67
2021/10/03 11:20:13;;;;;;;;;;;24.10;99.90;;;;;;5046248;28;20032;-67
2021/10/03 11:22:38;;;;;;;;;;;24.60;99.90;;;;;;5045351;28;19979;-68
2021/10/03 11:25:04;;;;;;;;;;;25.20;99.90;;;;;;5048744;28;20322;-67
2021/10/03 11:27:30;;;;;;;;;;;26.10;99.90;;;;;;5079812;22;19925;-65
2021/10/03 11:29:57;;;;;;;;;;;27.20;99.90;;;;;;5069482;28;20007;-64
2021/10/03 11:32:23;;;;;;;;;;;28.20;99.90;;;;;;5052367;28;20428;-67
2021/10/03 11:34:51;;;;;;;;;;;28.90;99.90;;;;;;5056102;28;19942;-65
2021/10/03 11:37:28;;;;;;;;;;;29.50;99.90;;;;;;5060646;28;19916;-66
2021/10/03 11:39:55;;;;;;;;;;;29.60;99.90;;;;;;5059265;28;19929;-67
2021/10/03 11:42:34;;;;;;;;;;;29.20;99.90;;;;;;5061490;28;19916;-66
2021/10/03 11:45:02;;;;;;;;;;;28.80;99.90;;;;;;5056083;28;20365;-65
2021/10/03 11:47:36;;;;;;;;;;;28.40;99.90;;;;;;5053581;28;19917;-68
2021/10/03 11:50:02;;;;;;;;;;;27.90;99.90;;;;;;5061446;28;19912;-66
2021/10/03 11:52:30;;;;;;;;;;;27.10;99.90;;;;;;5067679;28;19981;-66
2021/10/03 11:55:00;;;;;;;;;;;26.40;99.90;;;;;;5058832;28;19935;-63
2021/10/03 11:57:29;;;;;;;;;;;26.00;99.90;;;;;;5059675;28;19935;-65
2021/10/03 12:00:03;;;;;;;;;;;25.90;99.90;;;;;;5052396;28;20429;-65
2021/10/03 12:02:33;;;;;;;;;;;26.00;99.90;;;;;;5062495;28;20377;-66
2021/10/03 12:04:59;;;;;;;;;;;26.00;99.90;;;;;;5059487;28;20011;-66
2021/10/03 12:07:25;;;;;;;;;;;26.80;99.90;;;;;;5059076;28;20081;-66
2021/10/03 12:09:59;;;;;;;;;;;27.40;99.90;;;;;;5058286;28;19935;-65
2021/10/03 12:12:43;;;;;;;;;;;27.50;99.90;;;;;;5057472;28;19920;-65
2021/10/03 12:15:09;;;;;;;;;;;27.60;99.90;;;;;;5061132;28;20341;-65
2021/10/03 12:17:47;;;;;;;;;;;27.40;99.90;;;;;;5056556;28;19921;-65
2021/10/03 12:20:12;;;;;;;;;;;27.20;99.90;;;;;;5041379;28;19912;-67
2021/10/03 12:22:54;;;;;;;;;;;26.70;99.90;;;;;;5062585;28;19923;-65
2021/10/03 12:25:20;;;;;;;;;;;26.70;99.90;;;;;;5067773;28;19920;-68
2021/10/03 12:27:58;;;;;;;;;;;26.90;99.90;;;;;;5052075;28;19931;-68
2021/10/03 12:30:23;;;;;;;;;;;26.90;99.90;;;;;;5068376;28;20452;-66
2021/10/03 12:32:59;;;;;;;;;;;26.60;99.90;;;;;;5059881;28;20019;-65
2021/10/03 12:35:24;;;;;;;;;;;26.70;99.90;;;;;;5060205;28;19916;-65
2021/10/03 12:37:50;;;;;;;;;;;26.70;99.90;;;;;;5048803;28;19912;-66
2021/10/03 12:40:21;;;;;;;;;;;26.70;99.90;;;;;;5049505;28;19917;-65
2021/10/03 12:42:46;;;;;;;;;;;26.60;99.90;;;;;;5056375;28;19917;-66
2021/10/03 12:45:12;;;;;;;;;;;26.60;99.90;;;;;;5052346;28;20666;-66
2021/10/03 12:47:40;;;;;;;;;;;26.80;99.90;;;;;;5048987;28;20354;-66
2021/10/03 12:50:06;;;;;;;;;;;27.00;99.90;;;;;;5054842;28;19923;-66
2021/10/03 12:52:32;;;;;;;;;;;27.10;99.90;;;;;;5058054;28;19999;-64
2021/10/03 12:54:57;;;;;;;;;;;27.00;99.90;;;;;;5051721;28;20000;-65
2021/10/03 12:57:23;;;;;;;;;;;26.80;99.90;;;;;;5059257;28;20351;-65
2021/10/03 12:59:49;;;;;;;;;;;26.70;99.90;;;;;;5061430;28;19921;-65
2021/10/03 13:02:14;;;;;;;;;;;26.70;99.90;;;;;;5045413;28;19916;-65
2021/10/03 13:04:40;;;;;;;;;;;26.70;99.90;;;;;;5053083;28;20006;-64
2021/10/03 13:07:06;;;;;;;;;;;26.70;99.90;;;;;;5056155;28;19920;-65
2021/10/03 13:09:32;;;;;;;;;;;26.60;99.90;;;;;;5063027;28;20018;-65
2021/10/03 13:11:57;;;;;;;;;;;26.40;99.90;;;;;;5050335;28;20389;-65
2021/10/03 13:14:23;;;;;;;;;;;26.30;99.90;;;;;;5053174;28;20070;-65
2021/10/03 13:16:48;;;;;;;;;;;26.20;99.90;;;;;;5052106;28;19969;-65
2021/10/03 13:19:14;;;;;;;;;;;26.00;99.90;;;;;;5052983;28;19908;-65
2021/10/03 13:21:39;;;;;;;;;;;25.90;99.90;;;;;;5051092;28;19908;-66
2021/10/03 13:24:05;;;;;;;;;;;25.80;99.90;;;;;;5052486;28;19920;-66
2021/10/03 13:26:31;;;;;;;;;;;25.80;99.90;;;;;;5052738;28;19956;-65
2021/10/03 13:28:57;;;;;;;;;;;25.80;99.90;;;;;;5052707;28;20361;-66
2021/10/03 13:31:22;;;;;;;;;;;25.80;99.90;;;;;;5052300;28;19909;-65
2021/10/03 13:33:48;;;;;;;;;;;25.50;99.90;;;;;;5052613;28;19909;-65
2021/10/03 13:36:13;;;;;;;;;;;25.30;99.90;;;;;;5052456;28;19952;-65
2021/10/03 13:38:39;;;;;;;;;;;25.10;99.90;;;;;;5053615;28;20288;-65
2021/10/03 13:41:05;;;;;;;;;;;25.00;99.90;;;;;;5052786;28;20364;-65
2021/10/03 13:43:31;;;;;;;;;;;24.70;99.90;;;;;;5051798;28;19908;-66
2021/10/03 13:45:57;;;;;;;;;;;24.50;99.90;;;;;;5052445;28;20262;-65
2021/10/03 13:48:23;;;;;;;;;;;24.40;99.90;;;;;;5053152;28;20067;-65
2021/10/03 13:50:48;;;;;;;;;;;24.30;99.90;;;;;;5051999;28;20437;-65
2021/10/03 13:53:14;;;;;;;;;;;24.40;99.90;;;;;;5051612;28;19967;-66
2021/10/03 13:55:39;;;;;;;;;;;24.60;99.90;;;;;;5052003;28;19916;-65
2021/10/03 13:58:05;;;;;;;;;;;24.70;99.90;;;;;;5051984;28;19920;-65
2021/10/03 14:00:31;;;;;;;;;;;24.70;99.90;;;;;;5051755;28;19908;-64
2021/10/03 14:02:56;;;;;;;;;;;24.80;99.90;;;;;;5050973;28;20433;-66
2021/10/03 14:05:22;;;;;;;;;;;24.80;99.90;;;;;;5051776;28;20011;-65
2021/10/03 14:07:48;;;;;;;;;;;24.70;99.90;;;;;;5051815;28;19916;-65
2021/10/03 14:10:19;;;;;;;;;;;24.70;99.90;;;;;;5052477;28;19909;-65
2021/10/03 14:12:45;;;;;;;;;;;24.50;99.90;;;;;;5051127;28;19913;-65
2021/10/03 14:15:11;;;;;;;;;;;24.40;99.90;;;;;;5051357;28;20025;-65
2021/10/03 14:17:36;;;;;;;;;;;24.40;99.90;;;;;;5052056;28;19920;-65
2021/10/03 14:20:06;;;;;;;;;;;24.40;99.90;;;;;;5051984;28;20293;-65